createdAt,value
2022-09-06T03:18:46.808Z,18.18
2022-09-06T03:21:56.295Z,18.17
2022-09-06T03:25:06.263Z,18.14
2022-09-06T03:28:16.144Z,18.14
2022-09-06T03:31:31.728Z,18.14
2022-09-06T03:34:45.219Z,18.14
2022-09-06T03:37:54.707Z,18.11
2022-09-06T03:41:04.263Z,18.08
2022-09-06T03:44:13.729Z,18.03
2022-09-06T03:47:26.402Z,17.98
2022-09-06T03:50:45.435Z,17.93
2022-09-06T03:53:57.579Z,17.88
2022-09-06T03:57:07.773Z,17.83
2022-09-06T04:00:17.425Z,17.76
2022-09-06T04:03:31.987Z,17.73
2022-09-06T04:06:42.693Z,17.69
2022-09-06T04:09:54.466Z,17.60
2022-09-06T04:13:03.953Z,17.55
2022-09-06T04:16:13.474Z,17.51
2022-09-06T04:19:23.908Z,17.46
2022-09-06T04:22:34.703Z,17.36
2022-09-06T04:25:47.354Z,17.32
2022-09-06T04:28:56.866Z,17.28
2022-09-06T04:32:06.665Z,17.19
2022-09-06T04:35:16.422Z,17.15
2022-09-06T04:38:29.014Z,17.09
2022-09-06T04:41:38.911Z,17.03
2022-09-06T04:44:49.371Z,16.97
2022-09-06T04:47:58.823Z,16.91
2022-09-06T04:51:08.281Z,16.89
2022-09-06T04:54:19.143Z,16.85
2022-09-06T04:57:28.602Z,16.79
2022-09-06T05:04:15.701Z,16.68
2022-09-06T05:07:25.223Z,16.67
2022-09-06T05:10:36.020Z,16.74
2022-09-06T05:13:46.463Z,16.77
2022-09-06T05:16:56.561Z,16.75
2022-09-06T05:20:06.828Z,16.75
2022-09-06T05:23:16.276Z,16.75
2022-09-06T05:26:27.008Z,16.75
2022-09-06T05:29:36.492Z,16.76
2022-09-06T05:32:46.022Z,16.77
2022-09-06T05:35:55.792Z,16.72
2022-09-06T05:39:05.542Z,16.69
2022-09-06T05:42:19.260Z,16.71
2022-09-06T05:45:29.022Z,16.73
2022-09-06T05:48:38.944Z,16.75
2022-09-06T05:51:51.408Z,16.77
2022-09-06T05:55:00.852Z,16.80
2022-09-06T05:58:13.459Z,16.82
2022-09-06T06:01:24.947Z,16.88
2022-09-06T06:04:34.548Z,16.97
2022-09-06T06:07:44.136Z,17.03
2022-09-06T06:10:53.604Z,17.11
2022-09-06T06:14:05.357Z,17.15
2022-09-06T06:17:14.803Z,17.21
2022-09-06T06:20:24.372Z,17.30
2022-09-06T06:27:16.015Z,17.53
2022-09-06T06:30:28.165Z,17.64
2022-09-06T06:33:37.755Z,17.77
2022-09-06T06:36:47.282Z,17.82
2022-09-06T06:39:57.007Z,17.88
2022-09-06T06:43:08.962Z,17.93
2022-09-06T06:46:20.739Z,17.97
2022-09-06T06:49:30.489Z,18.04
2022-09-06T06:52:41.118Z,18.16
2022-09-06T06:55:50.822Z,18.27
2022-09-06T06:59:02.536Z,18.36
2022-09-06T07:02:15.612Z,18.50
2022-09-06T07:08:57.987Z,18.74
2022-09-06T07:12:10.272Z,18.88
2022-09-06T07:15:20.005Z,19.01
2022-09-06T07:18:30.806Z,19.17
2022-09-06T07:21:40.351Z,19.27
2022-09-06T07:24:49.889Z,19.41
2022-09-06T07:28:05.688Z,19.66
2022-09-06T07:34:46.508Z,19.90
2022-09-06T07:37:57.602Z,20.22
2022-09-06T07:41:09.073Z,20.81
2022-09-06T07:44:18.730Z,21.23
2022-09-06T07:51:06.060Z,21.60
2022-09-06T07:54:31.699Z,21.79
2022-09-06T07:57:41.344Z,22.25
2022-09-06T08:00:50.880Z,22.63
2022-09-06T08:04:02.114Z,22.95
2022-09-06T08:10:42.644Z,23.42
2022-09-06T08:13:54.582Z,23.72
2022-09-06T08:17:04.528Z,23.91
2022-09-06T08:20:14.132Z,24.26
2022-09-06T08:23:24.950Z,24.66
2022-09-06T08:26:36.673Z,25.03
2022-09-06T08:29:46.204Z,25.37
2022-09-06T08:32:56.642Z,25.66
2022-09-06T08:36:07.338Z,25.85
2022-09-06T08:39:18.176Z,26.24
2022-09-06T08:42:27.855Z,26.56
2022-09-06T08:45:37.559Z,26.74
2022-09-06T08:48:47.188Z,27.01
2022-09-06T08:52:17.041Z,27.33
2022-09-06T08:55:36.216Z,27.58
2022-09-06T08:59:00.393Z,27.83
2022-09-06T09:02:13.464Z,27.88
2022-09-06T09:05:27.827Z,27.86
2022-09-06T09:08:44.179Z,27.82
2022-09-06T09:11:55.840Z,27.86
2022-09-06T09:15:10.337Z,27.72
2022-09-06T09:18:24.514Z,28.23
2022-09-06T09:21:37.430Z,28.73
2022-09-06T09:24:51.509Z,28.99
2022-09-06T09:28:03.314Z,29.09
2022-09-06T09:31:14.459Z,29.45
2022-09-06T09:34:30.968Z,29.84
2022-09-06T09:37:48.691Z,29.95
2022-09-06T09:41:03.532Z,30.34
2022-09-06T09:44:20.653Z,30.58
2022-09-06T09:47:31.909Z,30.77
2022-09-06T09:50:41.426Z,30.87
2022-09-06T09:53:53.336Z,31.13
2022-09-06T09:57:04.592Z,31.44
2022-09-06T10:00:32.264Z,31.55
2022-09-06T10:07:14.668Z,31.97
2022-09-06T10:10:26.532Z,32.17
2022-09-06T10:13:36.264Z,32.11
2022-09-06T10:16:47.007Z,31.91
2022-09-06T10:19:57.315Z,31.79
2022-09-06T10:23:15.980Z,32.17
2022-09-06T10:26:37.768Z,32.35
2022-09-06T10:29:56.036Z,32.18
2022-09-06T10:33:19.131Z,31.94
2022-09-06T10:36:34.893Z,31.87
2022-09-06T10:39:50.609Z,32.15
2022-09-06T10:43:01.678Z,32.10
2022-09-06T10:46:16.155Z,32.22
2022-09-06T10:49:28.467Z,32.31
2022-09-06T10:52:44.543Z,32.79
2022-09-06T10:56:05.335Z,33.09
2022-09-06T10:59:41.153Z,33.12
2022-09-06T11:06:32.086Z,32.44
2022-09-06T11:09:46.226Z,32.12
2022-09-06T11:13:01.287Z,32.07
2022-09-06T11:16:17.096Z,32.29
2022-09-06T11:19:34.471Z,32.61
2022-09-06T11:23:04.422Z,33.17
2022-09-06T11:26:34.612Z,33.16
2022-09-06T11:29:56.555Z,32.92
2022-09-06T11:33:20.665Z,33.14
2022-09-06T11:36:36.483Z,33.01
2022-09-06T11:43:45.887Z,32.56
2022-09-06T11:47:00.499Z,32.42
2022-09-06T11:50:25.786Z,32.64
2022-09-06T11:53:58.370Z,32.77
2022-09-06T11:57:15.605Z,33.25
2022-09-06T12:00:25.891Z,33.53
2022-09-06T12:07:13.817Z,33.53
2022-09-06T12:10:45.817Z,33.26
2022-09-06T12:14:00.189Z,33.39
2022-09-06T12:17:22.127Z,33.69
2022-09-06T12:20:58.481Z,33.88
2022-09-06T12:24:09.497Z,34.16
2022-09-06T12:27:20.195Z,34.06
2022-09-06T12:30:37.052Z,33.81
2022-09-06T12:33:47.900Z,33.97
2022-09-06T12:37:01.296Z,33.98
2022-09-06T12:40:20.264Z,33.81
2022-09-06T12:43:35.983Z,33.86
2022-09-06T12:46:50.600Z,33.97
2022-09-06T12:50:14.684Z,34.04
2022-09-06T12:53:25.342Z,34.35
2022-09-06T12:56:35.233Z,34.44
2022-09-06T12:59:54.674Z,34.22
2022-09-06T13:03:15.305Z,34.35
2022-09-06T13:06:27.483Z,34.28
2022-09-06T13:09:41.721Z,34.00
2022-09-06T13:12:53.231Z,33.86
2022-09-06T13:16:03.442Z,34.00
2022-09-06T13:19:20.120Z,34.42
2022-09-06T13:22:43.249Z,34.79
2022-09-06T13:25:54.452Z,34.93
2022-09-06T13:29:11.681Z,35.28
2022-09-06T14:52:07.614Z,31.65
2022-09-06T14:55:27.308Z,31.67
2022-09-06T14:58:40.114Z,31.66
2022-09-06T15:01:59.759Z,31.73
2022-09-06T15:05:12.285Z,31.66
2022-09-06T15:08:27.066Z,31.64
2022-09-06T15:11:42.828Z,31.64
2022-09-06T15:14:53.485Z,31.56
2022-09-06T15:18:03.864Z,31.55
2022-09-06T15:21:17.939Z,31.55
2022-09-06T15:24:41.652Z,31.47
2022-09-06T15:27:52.588Z,31.44
2022-09-06T15:31:02.598Z,31.18
2022-09-06T15:34:12.278Z,31.13
2022-09-06T15:37:22.215Z,31.06
2022-09-06T15:40:31.832Z,31.03
2022-09-06T15:43:48.858Z,30.83
2022-09-06T15:47:02.797Z,30.38
2022-09-06T15:50:12.683Z,30.14
2022-09-06T15:53:22.299Z,29.97
2022-09-06T15:56:31.966Z,29.75
2022-09-06T15:59:43.292Z,29.56
2022-09-06T16:02:53.340Z,29.19
2022-09-06T16:09:40.823Z,28.60
2022-09-06T16:12:52.756Z,28.36
2022-09-06T16:16:08.098Z,28.25
2022-09-06T16:19:19.858Z,28.13
2022-09-06T16:22:35.129Z,28.10
2022-09-06T16:25:59.031Z,28.02
2022-09-06T16:29:09.856Z,27.97
2022-09-06T16:32:23.090Z,28.09
2022-09-06T16:35:35.921Z,28.09
2022-09-06T16:38:46.118Z,28.09
2022-09-06T16:41:56.773Z,28.09
2022-09-06T16:45:06.895Z,27.94
2022-09-06T16:48:24.080Z,27.66
2022-09-06T16:51:39.201Z,27.55
2022-09-06T16:54:52.797Z,27.48
2022-09-06T16:58:05.854Z,27.36
2022-09-06T17:01:54.421Z,27.29
2022-09-06T17:05:10.776Z,27.21
2022-09-06T17:08:30.054Z,27.13
2022-09-06T17:11:44.909Z,27.10
2022-09-06T17:15:00.329Z,27.16
2022-09-06T17:18:11.963Z,26.80
2022-09-06T17:21:26.694Z,26.49
2022-09-06T17:24:36.725Z,26.35
2022-09-06T17:27:50.505Z,26.25
2022-09-06T17:31:09.342Z,26.13
2022-09-06T17:34:19.650Z,25.81
2022-09-06T17:37:34.833Z,25.43
2022-09-06T17:40:44.721Z,25.16
2022-09-06T17:43:58.779Z,24.92
2022-09-06T17:47:14.253Z,24.82
2022-09-06T17:50:34.785Z,24.83
2022-09-06T17:53:53.556Z,24.68
2022-09-06T17:57:05.878Z,24.54
2022-09-06T18:00:21.778Z,24.27
2022-09-06T18:03:31.978Z,24.02
2022-09-06T18:06:46.653Z,24.01
2022-09-06T18:10:01.559Z,24.01
2022-09-06T18:13:11.403Z,23.92
2022-09-06T18:16:21.090Z,23.83
2022-09-06T18:19:33.718Z,23.68
2022-09-06T18:22:46.083Z,23.57
2022-09-06T18:26:02.067Z,23.48
2022-09-06T18:29:18.208Z,23.36
2022-09-06T18:32:27.973Z,23.18
2022-09-06T18:35:43.734Z,23.05
2022-09-06T18:38:53.422Z,22.86
2022-09-06T18:42:11.054Z,22.71
2022-09-06T18:45:21.136Z,22.65
2022-09-06T18:48:34.587Z,22.58
2022-09-06T18:51:45.448Z,22.45
2022-09-06T18:54:55.597Z,22.31
2022-09-06T18:58:07.746Z,22.32
2022-09-06T19:01:20.264Z,22.18
2022-09-06T19:04:30.861Z,22.03
2022-09-06T19:07:40.980Z,21.85
2022-09-06T19:10:59.866Z,21.68
2022-09-06T19:14:13.116Z,21.70
2022-09-06T19:17:24.078Z,21.69
2022-09-06T19:20:35.609Z,21.62
2022-09-06T19:23:51.067Z,21.55
2022-09-06T19:27:06.270Z,21.53
2022-09-06T19:30:20.346Z,21.47
2022-09-06T19:33:35.577Z,21.31
2022-09-06T19:36:57.777Z,21.31
2022-09-06T19:40:09.696Z,21.22
2022-09-06T19:43:22.989Z,21.15
2022-09-06T19:46:53.014Z,20.93
2022-09-06T19:50:04.263Z,20.73
2022-09-06T19:53:21.884Z,20.64
2022-09-06T19:56:37.489Z,20.61
2022-09-06T19:59:50.230Z,20.50
2022-09-06T20:03:01.957Z,20.28
2022-09-06T20:06:13.520Z,20.23
2022-09-06T20:09:24.052Z,20.20
2022-09-06T20:12:33.895Z,20.13
2022-09-06T20:15:43.761Z,20.09
2022-09-06T20:18:56.235Z,20.07
2022-09-06T20:22:06.090Z,19.91
2022-09-06T20:25:23.442Z,19.87
2022-09-06T20:28:36.957Z,19.74
2022-09-06T20:31:47.261Z,19.62
2022-09-06T20:35:01.417Z,19.57
2022-09-06T20:38:11.157Z,19.55
2022-09-06T20:41:22.713Z,19.62
2022-09-06T20:44:32.722Z,19.64
2022-09-06T20:47:42.606Z,19.63
2022-09-06T20:51:02.879Z,19.57
2022-09-06T20:54:13.651Z,19.49
2022-09-06T20:57:23.384Z,19.42
2022-09-06T21:00:33.102Z,19.35
2022-09-06T21:03:43.533Z,19.31
2022-09-06T21:06:55.063Z,19.28
2022-09-06T21:10:05.219Z,19.24
2022-09-06T21:13:14.953Z,19.19
2022-09-06T21:16:27.116Z,18.97
2022-09-06T21:19:39.171Z,18.86
2022-09-06T21:22:50.247Z,18.65
2022-09-06T21:26:02.262Z,18.59
2022-09-06T21:29:12.407Z,18.56
